sensor_id;sensor_type;location;lat;lon;timestamp;P1;durP1;ratioP1;P2;durP2;ratioP2
19905;SDS011;10115;50.906;4.438;2024-03-23T00:55:58;15.47;;;14.60;;
19905;SDS011;10115;50.906;4.438;2024-03-23T00:58:24;17.83;;;15.07;;
19905;SDS011;10115;50.906;4.438;2024-03-23T01:00:50;15.67;;;14.57;;
19905;SDS011;10115;50.906;4.438;2024-03-23T01:03:15;15.63;;;14.40;;
19905;SDS011;10115;50.906;4.438;2024-03-23T01:05:41;14.90;;;13.97;;
19905;SDS011;10115;50.906;4.438;2024-03-23T01:08:07;15.20;;;14.00;;
19905;SDS011;10115;50.906;4.438;2024-03-23T01:10:32;17.03;;;15.33;;
19905;SDS011;10115;50.906;4.438;2024-03-23T01:12:58;16.93;;;14.97;;
19905;SDS011;10115;50.906;4.438;2024-03-23T01:15:23;16.13;;;14.87;;
19905;SDS011;10115;50.906;4.438;2024-03-23T01:17:49;16.33;;;15.00;;
19905;SDS011;10115;50.906;4.438;2024-03-23T01:20:15;17.17;;;15.43;;
19905;SDS011;10115;50.906;4.438;2024-03-23T01:22:40;16.70;;;15.43;;
19905;SDS011;10115;50.906;4.438;2024-03-23T01:25:06;14.80;;;14.07;;
19905;SDS011;10115;50.906;4.438;2024-03-23T01:27:32;16.23;;;15.07;;
19905;SDS011;10115;50.906;4.438;2024-03-23T01:29:59;17.00;;;15.80;;
19905;SDS011;10115;50.906;4.438;2024-03-23T01:32:24;20.13;;;18.67;;
19905;SDS011;10115;50.906;4.438;2024-03-23T01:34:50;30.07;;;28.40;;
19905;SDS011;10115;50.906;4.438;2024-03-23T01:37:16;25.23;;;23.93;;
19905;SDS011;10115;50.906;4.438;2024-03-23T01:39:41;21.17;;;19.33;;
19905;SDS011;10115;50.906;4.438;2024-03-23T01:42:07;19.97;;;18.80;;
19905;SDS011;10115;50.906;4.438;2024-03-23T01:44:33;20.13;;;18.53;;
19905;SDS011;10115;50.906;4.438;2024-03-23T01:46:58;37.40;;;35.20;;
19905;SDS011;10115;50.906;4.438;2024-03-23T01:49:24;21.30;;;20.10;;
19905;SDS011;10115;50.906;4.438;2024-03-23T01:51:50;22.33;;;20.00;;
19905;SDS011;10115;50.906;4.438;2024-03-23T01:54:15;37.47;;;35.53;;
19905;SDS011;10115;50.906;4.438;2024-03-23T01:56:41;23.30;;;20.87;;
19905;SDS011;10115;50.906;4.438;2024-03-23T01:59:07;26.63;;;24.20;;
19905;SDS011;10115;50.906;4.438;2024-03-23T02:01:34;32.27;;;30.10;;
19905;SDS011;10115;50.906;4.438;2024-03-23T02:04:01;37.17;;;33.67;;
19905;SDS011;10115;50.906;4.438;2024-03-23T02:06:27;20.03;;;18.83;;
19905;SDS011;10115;50.906;4.438;2024-03-23T02:08:53;22.33;;;20.83;;
19905;SDS011;10115;50.906;4.438;2024-03-23T02:11:19;33.27;;;31.33;;
19905;SDS011;10115;50.906;4.438;2024-03-23T02:13:45;19.83;;;18.73;;
19905;SDS011;10115;50.906;4.438;2024-03-23T02:16:12;20.83;;;19.20;;
19905;SDS011;10115;50.906;4.438;2024-03-23T02:18:41;18.37;;;17.30;;
19905;SDS011;10115;50.906;4.438;2024-03-23T02:21:06;19.97;;;17.90;;
19905;SDS011;10115;50.906;4.438;2024-03-23T02:23:32;22.37;;;20.83;;
19905;SDS011;10115;50.906;4.438;2024-03-23T02:25:57;20.47;;;19.27;;
19905;SDS011;10115;50.906;4.438;2024-03-23T02:28:23;20.77;;;19.13;;
19905;SDS011;10115;50.906;4.438;2024-03-23T02:30:49;20.83;;;19.57;;
19905;SDS011;10115;50.906;4.438;2024-03-23T02:33:15;23.77;;;22.47;;
19905;SDS011;10115;50.906;4.438;2024-03-23T02:35:41;26.00;;;24.70;;
19905;SDS011;10115;50.906;4.438;2024-03-23T02:38:07;28.20;;;26.60;;
19905;SDS011;10115;50.906;4.438;2024-03-23T02:40:32;21.10;;;19.83;;
19905;SDS011;10115;50.906;4.438;2024-03-23T02:42:58;18.43;;;17.13;;
19905;SDS011;10115;50.906;4.438;2024-03-23T02:45:23;18.87;;;17.17;;
19905;SDS011;10115;50.906;4.438;2024-03-23T02:47:49;17.57;;;16.37;;
19905;SDS011;10115;50.906;4.438;2024-03-23T02:50:18;18.00;;;16.27;;
19905;SDS011;10115;50.906;4.438;2024-03-23T02:52:44;16.33;;;15.20;;
19905;SDS011;10115;50.906;4.438;2024-03-23T02:55:10;16.70;;;15.80;;
19905;SDS011;10115;50.906;4.438;2024-03-23T02:57:35;18.93;;;17.60;;
19905;SDS011;10115;50.906;4.438;2024-03-23T03:00:01;18.20;;;16.80;;
19905;SDS011;10115;50.906;4.438;2024-03-23T03:02:27;19.67;;;17.67;;
19905;SDS011;10115;50.906;4.438;2024-03-23T03:04:53;20.87;;;18.57;;
19905;SDS011;10115;50.906;4.438;2024-03-23T03:07:18;23.77;;;22.13;;
19905;SDS011;10115;50.906;4.438;2024-03-23T03:09:44;28.97;;;26.87;;
19905;SDS011;10115;50.906;4.438;2024-03-23T03:12:09;26.53;;;24.80;;
19905;SDS011;10115;50.906;4.438;2024-03-23T03:14:35;30.53;;;28.03;;
19905;SDS011;10115;50.906;4.438;2024-03-23T03:17:01;19.33;;;18.37;;
19905;SDS011;10115;50.906;4.438;2024-03-23T03:19:26;21.33;;;20.13;;
19905;SDS011;10115;50.906;4.438;2024-03-23T03:21:52;20.80;;;19.67;;
19905;SDS011;10115;50.906;4.438;2024-03-23T03:24:18;35.73;;;33.87;;
19905;SDS011;10115;50.906;4.438;2024-03-23T03:26:44;19.60;;;17.67;;
19905;SDS011;10115;50.906;4.438;2024-03-23T03:29:09;21.80;;;20.47;;
19905;SDS011;10115;50.906;4.438;2024-03-23T03:31:36;25.80;;;19.67;;
19905;SDS011;10115;50.906;4.438;2024-03-23T03:34:02;20.50;;;19.40;;
19905;SDS011;10115;50.906;4.438;2024-03-23T03:36:28;21.93;;;20.13;;
19905;SDS011;10115;50.906;4.438;2024-03-23T03:38:54;21.73;;;20.20;;
19905;SDS011;10115;50.906;4.438;2024-03-23T03:41:19;18.90;;;17.80;;
19905;SDS011;10115;50.906;4.438;2024-03-23T03:43:45;28.60;;;18.80;;
19905;SDS011;10115;50.906;4.438;2024-03-23T03:46:11;18.70;;;17.10;;
19905;SDS011;10115;50.906;4.438;2024-03-23T03:48:37;19.13;;;17.43;;
19905;SDS011;10115;50.906;4.438;2024-03-23T03:51:03;20.03;;;18.17;;
19905;SDS011;10115;50.906;4.438;2024-03-23T03:53:29;20.87;;;19.10;;
19905;SDS011;10115;50.906;4.438;2024-03-23T03:55:55;22.97;;;19.93;;
19905;SDS011;10115;50.906;4.438;2024-03-23T03:58:21;18.90;;;17.20;;
19905;SDS011;10115;50.906;4.438;2024-03-23T04:00:47;23.87;;;18.83;;
19905;SDS011;10115;50.906;4.438;2024-03-23T04:03:12;16.63;;;15.63;;
19905;SDS011;10115;50.906;4.438;2024-03-23T04:05:38;16.47;;;15.13;;
19905;SDS011;10115;50.906;4.438;2024-03-23T04:08:04;19.80;;;18.17;;
19905;SDS011;10115;50.906;4.438;2024-03-23T04:10:31;17.07;;;15.97;;
19905;SDS011;10115;50.906;4.438;2024-03-23T04:12:56;19.77;;;18.17;;
19905;SDS011;10115;50.906;4.438;2024-03-23T04:15:22;19.93;;;18.30;;
19905;SDS011;10115;50.906;4.438;2024-03-23T04:17:47;20.47;;;19.13;;
19905;SDS011;10115;50.906;4.438;2024-03-23T04:20:13;19.07;;;17.77;;
19905;SDS011;10115;50.906;4.438;2024-03-23T04:22:41;21.00;;;19.43;;
19905;SDS011;10115;50.906;4.438;2024-03-23T04:25:08;19.00;;;17.70;;
19905;SDS011;10115;50.906;4.438;2024-03-23T04:27:35;20.97;;;19.37;;
19905;SDS011;10115;50.906;4.438;2024-03-23T04:30:02;27.97;;;26.17;;
19905;SDS011;10115;50.906;4.438;2024-03-23T04:32:29;17.80;;;16.73;;
19905;SDS011;10115;50.906;4.438;2024-03-23T04:34:54;23.23;;;21.73;;
19905;SDS011;10115;50.906;4.438;2024-03-23T04:37:21;28.87;;;22.13;;
19905;SDS011;10115;50.906;4.438;2024-03-23T04:39:47;18.43;;;17.33;;
19905;SDS011;10115;50.906;4.438;2024-03-23T04:42:14;20.03;;;18.70;;
19905;SDS011;10115;50.906;4.438;2024-03-23T04:44:41;30.40;;;28.77;;
19905;SDS011;10115;50.906;4.438;2024-03-23T04:47:07;26.77;;;21.77;;
19905;SDS011;10115;50.906;4.438;2024-03-23T04:49:33;25.90;;;23.97;;
19905;SDS011;10115;50.906;4.438;2024-03-23T04:51:58;19.77;;;18.63;;
19905;SDS011;10115;50.906;4.438;2024-03-23T04:54:24;18.50;;;17.37;;
19905;SDS011;10115;50.906;4.438;2024-03-23T04:56:49;18.67;;;17.60;;
19905;SDS011;10115;50.906;4.438;2024-03-23T04:59:15;23.13;;;18.10;;
19905;SDS011;10115;50.906;4.438;2024-03-23T05:01:41;18.33;;;17.07;;
19905;SDS011;10115;50.906;4.438;2024-03-23T05:04:08;16.97;;;15.77;;
19905;SDS011;10115;50.906;4.438;2024-03-23T05:06:34;17.63;;;16.33;;
19905;SDS011;10115;50.906;4.438;2024-03-23T05:09:00;16.57;;;15.43;;
19905;SDS011;10115;50.906;4.438;2024-03-23T05:11:32;18.13;;;15.60;;
19905;SDS011;10115;50.906;4.438;2024-03-23T05:13:58;17.80;;;16.57;;
19905;SDS011;10115;50.906;4.438;2024-03-23T05:16:24;16.80;;;15.47;;
19905;SDS011;10115;50.906;4.438;2024-03-23T05:18:49;16.23;;;15.30;;
19905;SDS011;10115;50.906;4.438;2024-03-23T05:21:15;19.23;;;17.50;;
19905;SDS011;10115;50.906;4.438;2024-03-23T05:23:41;17.67;;;16.33;;
19905;SDS011;10115;50.906;4.438;2024-03-23T05:26:08;17.30;;;16.30;;
19905;SDS011;10115;50.906;4.438;2024-03-23T05:28:34;16.40;;;15.50;;
19905;SDS011;10115;50.906;4.438;2024-03-23T05:31:00;17.63;;;16.10;;
19905;SDS011;10115;50.906;4.438;2024-03-23T05:33:25;18.80;;;17.07;;
19905;SDS011;10115;50.906;4.438;2024-03-23T05:35:58;18.20;;;16.73;;
19905;SDS011;10115;50.906;4.438;2024-03-23T05:38:24;16.43;;;15.60;;
19905;SDS011;10115;50.906;4.438;2024-03-23T05:40:57;19.83;;;17.50;;
19905;SDS011;10115;50.906;4.438;2024-03-23T05:43:24;17.70;;;16.73;;
19905;SDS011;10115;50.906;4.438;2024-03-23T05:45:53;16.43;;;15.53;;
19905;SDS011;10115;50.906;4.438;2024-03-23T05:48:22;17.57;;;16.50;;
19905;SDS011;10115;50.906;4.438;2024-03-23T05:50:49;16.20;;;15.07;;
19905;SDS011;10115;50.906;4.438;2024-03-23T05:53:15;20.13;;;18.43;;
19905;SDS011;10115;50.906;4.438;2024-03-23T05:55:42;16.37;;;15.43;;
19905;SDS011;10115;50.906;4.438;2024-03-23T05:58:08;15.60;;;14.90;;
19905;SDS011;10115;50.906;4.438;2024-03-23T06:00:34;16.70;;;15.83;;
19905;SDS011;10115;50.906;4.438;2024-03-23T06:02:59;15.73;;;14.87;;
19905;SDS011;10115;50.906;4.438;2024-03-23T06:05:25;15.70;;;14.90;;
19905;SDS011;10115;50.906;4.438;2024-03-23T06:07:51;16.80;;;15.70;;
19905;SDS011;10115;50.906;4.438;2024-03-23T06:10:16;16.13;;;15.27;;
19905;SDS011;10115;50.906;4.438;2024-03-23T06:12:42;16.93;;;15.90;;
19905;SDS011;10115;50.906;4.438;2024-03-23T06:15:08;17.87;;;16.87;;
19905;SDS011;10115;50.906;4.438;2024-03-23T06:17:38;16.57;;;15.60;;
19905;SDS011;10115;50.906;4.438;2024-03-23T06:20:04;17.43;;;16.40;;
19905;SDS011;10115;50.906;4.438;2024-03-23T06:22:33;14.90;;;14.30;;
19905;SDS011;10115;50.906;4.438;2024-03-23T06:24:59;15.60;;;14.80;;
19905;SDS011;10115;50.906;4.438;2024-03-23T06:27:25;15.40;;;14.60;;
19905;SDS011;10115;50.906;4.438;2024-03-23T06:29:50;16.87;;;15.40;;
19905;SDS011;10115;50.906;4.438;2024-03-23T06:32:16;16.50;;;15.40;;
19905;SDS011;10115;50.906;4.438;2024-03-23T06:34:42;16.70;;;15.27;;
19905;SDS011;10115;50.906;4.438;2024-03-23T06:37:08;19.93;;;14.93;;
19905;SDS011;10115;50.906;4.438;2024-03-23T06:39:35;17.33;;;15.70;;
19905;SDS011;10115;50.906;4.438;2024-03-23T06:42:03;16.07;;;14.87;;
19905;SDS011;10115;50.906;4.438;2024-03-23T06:44:29;16.13;;;14.80;;
19905;SDS011;10115;50.906;4.438;2024-03-23T06:46:55;13.90;;;13.30;;
19905;SDS011;10115;50.906;4.438;2024-03-23T06:49:22;15.10;;;14.47;;
19905;SDS011;10115;50.906;4.438;2024-03-23T06:51:48;18.63;;;17.83;;
19905;SDS011;10115;50.906;4.438;2024-03-23T06:54:16;20.03;;;18.67;;
19905;SDS011;10115;50.906;4.438;2024-03-23T06:56:46;18.23;;;17.43;;
19905;SDS011;10115;50.906;4.438;2024-03-23T06:59:11;19.37;;;18.20;;
19905;SDS011;10115;50.906;4.438;2024-03-23T07:01:37;31.90;;;30.17;;
19905;SDS011;10115;50.906;4.438;2024-03-23T07:04:03;18.37;;;17.57;;
19905;SDS011;10115;50.906;4.438;2024-03-23T07:06:29;28.10;;;26.80;;
19905;SDS011;10115;50.906;4.438;2024-03-23T07:08:55;19.53;;;18.67;;
19905;SDS011;10115;50.906;4.438;2024-03-23T07:11:21;31.03;;;29.63;;
19905;SDS011;10115;50.906;4.438;2024-03-23T07:13:51;28.97;;;27.67;;
19905;SDS011;10115;50.906;4.438;2024-03-23T07:16:19;18.80;;;17.57;;
19905;SDS011;10115;50.906;4.438;2024-03-23T07:18:45;23.93;;;22.83;;
19905;SDS011;10115;50.906;4.438;2024-03-23T07:21:10;21.90;;;20.90;;
19905;SDS011;10115;50.906;4.438;2024-03-23T07:23:36;35.87;;;34.27;;
19905;SDS011;10115;50.906;4.438;2024-03-23T07:26:03;34.17;;;32.50;;
19905;SDS011;10115;50.906;4.438;2024-03-23T07:28:30;18.40;;;17.50;;
19905;SDS011;10115;50.906;4.438;2024-03-23T07:31:04;16.93;;;16.20;;
19905;SDS011;10115;50.906;4.438;2024-03-23T07:33:30;16.33;;;15.43;;
19905;SDS011;10115;50.906;4.438;2024-03-23T07:35:57;16.53;;;15.50;;
19905;SDS011;10115;50.906;4.438;2024-03-23T07:38:24;14.97;;;14.37;;
19905;SDS011;10115;50.906;4.438;2024-03-23T07:40:51;16.23;;;14.97;;
19905;SDS011;10115;50.906;4.438;2024-03-23T07:43:21;16.60;;;15.67;;
19905;SDS011;10115;50.906;4.438;2024-03-23T07:45:53;17.30;;;16.60;;
19905;SDS011;10115;50.906;4.438;2024-03-23T07:48:20;16.07;;;15.37;;
19905;SDS011;10115;50.906;4.438;2024-03-23T07:51:02;17.03;;;16.33;;
19905;SDS011;10115;50.906;4.438;2024-03-23T07:53:29;17.00;;;16.20;;
19905;SDS011;10115;50.906;4.438;2024-03-23T07:56:00;15.83;;;15.13;;
19905;SDS011;10115;50.906;4.438;2024-03-23T07:58:27;17.37;;;16.53;;
19905;SDS011;10115;50.906;4.438;2024-03-23T08:00:54;17.47;;;16.03;;
19905;SDS011;10115;50.906;4.438;2024-03-23T08:03:20;16.27;;;15.53;;
19905;SDS011;10115;50.906;4.438;2024-03-23T08:05:46;16.33;;;15.60;;
19905;SDS011;10115;50.906;4.438;2024-03-23T08:08:12;15.83;;;15.13;;
19905;SDS011;10115;50.906;4.438;2024-03-23T08:10:47;15.70;;;14.93;;
19905;SDS011;10115;50.906;4.438;2024-03-23T08:13:16;15.87;;;15.17;;
19905;SDS011;10115;50.906;4.438;2024-03-23T08:15:42;15.07;;;14.37;;
19905;SDS011;10115;50.906;4.438;2024-03-23T08:18:08;16.17;;;15.37;;
19905;SDS011;10115;50.906;4.438;2024-03-23T08:20:34;15.57;;;14.67;;
19905;SDS011;10115;50.906;4.438;2024-03-23T08:23:00;15.50;;;14.80;;
19905;SDS011;10115;50.906;4.438;2024-03-23T08:25:25;16.37;;;14.70;;
19905;SDS011;10115;50.906;4.438;2024-03-23T08:27:51;18.00;;;16.33;;
19905;SDS011;10115;50.906;4.438;2024-03-23T08:30:17;15.07;;;14.47;;
19905;SDS011;10115;50.906;4.438;2024-03-23T08:32:43;16.00;;;14.90;;
19905;SDS011;10115;50.906;4.438;2024-03-23T08:35:09;16.10;;;15.20;;
19905;SDS011;10115;50.906;4.438;2024-03-23T08:37:34;15.97;;;15.00;;
19905;SDS011;10115;50.906;4.438;2024-03-23T08:40:00;15.77;;;14.97;;
19905;SDS011;10115;50.906;4.438;2024-03-23T08:42:26;16.17;;;14.93;;
19905;SDS011;10115;50.906;4.438;2024-03-23T08:44:51;16.27;;;15.53;;
19905;SDS011;10115;50.906;4.438;2024-03-23T08:47:17;15.63;;;14.43;;
19905;SDS011;10115;50.906;4.438;2024-03-23T08:49:44;17.33;;;16.07;;
19905;SDS011;10115;50.906;4.438;2024-03-23T08:52:09;17.07;;;15.43;;
19905;SDS011;10115;50.906;4.438;2024-03-23T08:54:35;16.47;;;15.60;;
19905;SDS011;10115;50.906;4.438;2024-03-23T08:57:01;15.80;;;15.00;;
19905;SDS011;10115;50.906;4.438;2024-03-23T08:59:26;16.57;;;15.77;;
19905;SDS011;10115;50.906;4.438;2024-03-23T09:01:52;16.30;;;15.50;;
19905;SDS011;10115;50.906;4.438;2024-03-23T09:04:18;16.03;;;15.07;;
19905;SDS011;10115;50.906;4.438;2024-03-23T09:06:44;16.40;;;14.97;;
19905;SDS011;10115;50.906;4.438;2024-03-23T09:09:10;15.77;;;15.07;;
19905;SDS011;10115;50.906;4.438;2024-03-23T09:11:36;15.70;;;14.93;;
19905;SDS011;10115;50.906;4.438;2024-03-23T09:14:02;15.40;;;14.70;;
19905;SDS011;10115;50.906;4.438;2024-03-23T09:16:28;19.97;;;15.80;;
19905;SDS011;10115;50.906;4.438;2024-03-23T09:18:54;15.80;;;15.00;;
19905;SDS011;10115;50.906;4.438;2024-03-23T09:21:19;15.90;;;15.07;;
19905;SDS011;10115;50.906;4.438;2024-03-23T09:23:45;15.67;;;14.97;;
19905;SDS011;10115;50.906;4.438;2024-03-23T09:26:11;17.53;;;15.70;;
19905;SDS011;10115;50.906;4.438;2024-03-23T09:28:37;16.30;;;15.40;;
19905;SDS011;10115;50.906;4.438;2024-03-23T09:31:06;16.50;;;15.30;;
19905;SDS011;10115;50.906;4.438;2024-03-23T09:33:36;16.60;;;15.73;;
19905;SDS011;10115;50.906;4.438;2024-03-23T09:36:05;16.13;;;14.90;;
19905;SDS011;10115;50.906;4.438;2024-03-23T09:38:31;16.20;;;15.40;;
19905;SDS011;10115;50.906;4.438;2024-03-23T09:40:58;16.67;;;15.87;;
19905;SDS011;10115;50.906;4.438;2024-03-23T09:43:24;15.70;;;15.00;;
19905;SDS011;10115;50.906;4.438;2024-03-23T09:45:50;16.70;;;15.77;;
19905;SDS011;10115;50.906;4.438;2024-03-23T09:48:16;14.73;;;14.13;;
19905;SDS011;10115;50.906;4.438;2024-03-23T09:50:43;15.30;;;14.60;;
19905;SDS011;10115;50.906;4.438;2024-03-23T09:53:10;16.20;;;15.40;;
19905;SDS011;10115;50.906;4.438;2024-03-23T09:55:37;15.67;;;14.87;;
19905;SDS011;10115;50.906;4.438;2024-03-23T09:58:03;14.90;;;14.20;;
19905;SDS011;10115;50.906;4.438;2024-03-23T10:00:30;16.30;;;15.30;;
19905;SDS011;10115;50.906;4.438;2024-03-23T10:02:59;16.73;;;15.37;;
19905;SDS011;10115;50.906;4.438;2024-03-23T10:05:28;15.63;;;14.83;;
19905;SDS011;10115;50.906;4.438;2024-03-23T10:07:56;15.70;;;14.90;;
19905;SDS011;10115;50.906;4.438;2024-03-23T10:10:22;16.93;;;16.13;;
19905;SDS011;10115;50.906;4.438;2024-03-23T10:12:50;16.77;;;15.87;;
19905;SDS011;10115;50.906;4.438;2024-03-23T10:15:23;16.30;;;15.40;;
19905;SDS011;10115;50.906;4.438;2024-03-23T10:17:49;15.93;;;14.87;;
19905;SDS011;10115;50.906;4.438;2024-03-23T10:20:22;15.77;;;14.90;;
19905;SDS011;10115;50.906;4.438;2024-03-23T10:22:51;16.33;;;15.53;;
19905;SDS011;10115;50.906;4.438;2024-03-23T10:25:22;15.77;;;14.67;;
19905;SDS011;10115;50.906;4.438;2024-03-23T10:28:00;16.97;;;15.23;;
19905;SDS011;10115;50.906;4.438;2024-03-23T10:30:26;18.57;;;16.30;;
19905;SDS011;10115;50.906;4.438;2024-03-23T10:33:14;16.97;;;15.77;;
19905;SDS011;10115;50.906;4.438;2024-03-23T10:35:39;16.93;;;15.83;;
19905;SDS011;10115;50.906;4.438;2024-03-23T10:38:06;14.83;;;14.20;;
19905;SDS011;10115;50.906;4.438;2024-03-23T10:40:35;15.70;;;15.00;;
19905;SDS011;10115;50.906;4.438;2024-03-23T10:43:02;16.37;;;15.00;;
19905;SDS011;10115;50.906;4.438;2024-03-23T10:45:29;17.33;;;16.20;;
19905;SDS011;10115;50.906;4.438;2024-03-23T10:47:55;15.97;;;15.27;;
19905;SDS011;10115;50.906;4.438;2024-03-23T10:50:21;15.50;;;14.70;;
19905;SDS011;10115;50.906;4.438;2024-03-23T10:52:47;15.07;;;14.33;;
19905;SDS011;10115;50.906;4.438;2024-03-23T10:55:14;14.70;;;14.00;;
19905;SDS011;10115;50.906;4.438;2024-03-23T10:57:53;16.37;;;15.40;;
19905;SDS011;10115;50.906;4.438;2024-03-23T11:00:20;14.83;;;13.97;;
19905;SDS011;10115;50.906;4.438;2024-03-23T11:02:48;15.67;;;14.80;;
19905;SDS011;10115;50.906;4.438;2024-03-23T11:07:53;15.63;;;14.80;;
19905;SDS011;10115;50.906;4.438;2024-03-23T11:10:26;15.37;;;14.60;;
19905;SDS011;10115;50.906;4.438;2024-03-23T11:12:53;14.47;;;13.77;;
19905;SDS011;10115;50.906;4.438;2024-03-23T11:15:19;16.07;;;14.83;;
19905;SDS011;10115;50.906;4.438;2024-03-23T11:20:46;16.40;;;14.73;;
19905;SDS011;10115;50.906;4.438;2024-03-23T11:26:07;15.60;;;14.67;;
19905;SDS011;10115;50.906;4.438;2024-03-23T11:28:33;15.70;;;14.90;;
19905;SDS011;10115;50.906;4.438;2024-03-23T11:30:58;15.63;;;14.93;;
19905;SDS011;10115;50.906;4.438;2024-03-23T11:33:24;16.33;;;15.43;;
19905;SDS011;10115;50.906;4.438;2024-03-23T11:35:50;14.70;;;13.97;;
19905;SDS011;10115;50.906;4.438;2024-03-23T11:38:17;15.07;;;14.10;;
19905;SDS011;10115;50.906;4.438;2024-03-23T11:40:47;15.43;;;14.57;;
19905;SDS011;10115;50.906;4.438;2024-03-23T11:43:14;15.03;;;14.33;;
19905;SDS011;10115;50.906;4.438;2024-03-23T11:45:48;14.43;;;13.73;;
19905;SDS011;10115;50.906;4.438;2024-03-23T11:48:20;15.60;;;14.90;;
19905;SDS011;10115;50.906;4.438;2024-03-23T11:50:47;15.57;;;14.63;;
19905;SDS011;10115;50.906;4.438;2024-03-23T11:53:17;15.67;;;14.83;;
19905;SDS011;10115;50.906;4.438;2024-03-23T11:58:21;15.20;;;14.57;;
19905;SDS011;10115;50.906;4.438;2024-03-23T12:01:00;15.53;;;14.30;;
19905;SDS011;10115;50.906;4.438;2024-03-23T12:03:27;14.90;;;14.03;;
19905;SDS011;10115;50.906;4.438;2024-03-23T12:06:00;15.87;;;15.17;;
19905;SDS011;10115;50.906;4.438;2024-03-23T12:08:34;14.30;;;13.70;;
19905;SDS011;10115;50.906;4.438;2024-03-23T12:11:10;16.47;;;14.83;;
19905;SDS011;10115;50.906;4.438;2024-03-23T12:13:38;14.30;;;13.70;;
19905;SDS011;10115;50.906;4.438;2024-03-23T12:18:36;15.50;;;14.80;;
19905;SDS011;10115;50.906;4.438;2024-03-23T12:21:02;16.03;;;15.27;;
19905;SDS011;10115;50.906;4.438;2024-03-23T12:23:28;16.17;;;15.47;;
19905;SDS011;10115;50.906;4.438;2024-03-23T12:25:53;15.70;;;15.00;;
19905;SDS011;10115;50.906;4.438;2024-03-23T12:28:19;15.67;;;14.97;;
19905;SDS011;10115;50.906;4.438;2024-03-23T12:30:45;16.00;;;15.20;;
19905;SDS011;10115;50.906;4.438;2024-03-23T12:33:10;15.97;;;15.27;;
19905;SDS011;10115;50.906;4.438;2024-03-23T12:35:36;15.90;;;15.20;;
19905;SDS011;10115;50.906;4.438;2024-03-23T12:38:02;15.73;;;15.03;;
19905;SDS011;10115;50.906;4.438;2024-03-23T12:40:27;15.53;;;14.83;;
19905;SDS011;10115;50.906;4.438;2024-03-23T12:42:53;17.03;;;15.60;;
19905;SDS011;10115;50.906;4.438;2024-03-23T12:45:19;16.90;;;15.67;;
19905;SDS011;10115;50.906;4.438;2024-03-23T12:47:45;15.13;;;14.53;;
19905;SDS011;10115;50.906;4.438;2024-03-23T12:50:11;14.77;;;14.07;;
19905;SDS011;10115;50.906;4.438;2024-03-23T12:52:37;15.40;;;14.70;;
19905;SDS011;10115;50.906;4.438;2024-03-23T12:55:03;15.03;;;14.40;;
19905;SDS011;10115;50.906;4.438;2024-03-23T12:57:30;15.40;;;14.70;;
19905;SDS011;10115;50.906;4.438;2024-03-23T12:59:57;15.17;;;14.23;;
19905;SDS011;10115;50.906;4.438;2024-03-23T13:02:23;15.53;;;14.10;;
19905;SDS011;10115;50.906;4.438;2024-03-23T13:04:52;15.70;;;14.80;;
19905;SDS011;10115;50.906;4.438;2024-03-23T13:07:18;16.77;;;15.57;;
19905;SDS011;10115;50.906;4.438;2024-03-23T13:09:45;14.57;;;13.87;;
19905;SDS011;10115;50.906;4.438;2024-03-23T13:12:10;13.90;;;13.23;;
19905;SDS011;10115;50.906;4.438;2024-03-23T13:14:39;16.03;;;14.80;;
19905;SDS011;10115;50.906;4.438;2024-03-23T13:17:05;14.93;;;14.33;;
19905;SDS011;10115;50.906;4.438;2024-03-23T13:19:32;14.67;;;13.87;;
19905;SDS011;10115;50.906;4.438;2024-03-23T13:21:58;14.63;;;13.93;;
19905;SDS011;10115;50.906;4.438;2024-03-23T13:24:25;14.43;;;13.83;;
19905;SDS011;10115;50.906;4.438;2024-03-23T13:26:52;14.40;;;13.67;;
19905;SDS011;10115;50.906;4.438;2024-03-23T13:29:19;15.57;;;14.20;;
19905;SDS011;10115;50.906;4.438;2024-03-23T13:31:45;14.70;;;14.10;;
19905;SDS011;10115;50.906;4.438;2024-03-23T13:34:11;15.63;;;14.53;;
19905;SDS011;10115;50.906;4.438;2024-03-23T13:36:41;15.97;;;15.07;;
19905;SDS011;10115;50.906;4.438;2024-03-23T13:39:08;15.30;;;14.60;;
19905;SDS011;10115;50.906;4.438;2024-03-23T13:41:43;14.43;;;13.83;;
19905;SDS011;10115;50.906;4.438;2024-03-23T13:44:10;14.47;;;13.87;;
19905;SDS011;10115;50.906;4.438;2024-03-23T13:46:38;15.10;;;14.37;;
19905;SDS011;10115;50.906;4.438;2024-03-23T13:49:04;15.10;;;14.40;;
19905;SDS011;10115;50.906;4.438;2024-03-23T13:51:31;15.40;;;14.70;;
19905;SDS011;10115;50.906;4.438;2024-03-23T13:53:56;15.20;;;14.33;;
19905;SDS011;10115;50.906;4.438;2024-03-23T13:56:25;16.07;;;15.27;;
19905;SDS011;10115;50.906;4.438;2024-03-23T13:58:55;16.03;;;15.23;;
19905;SDS011;10115;50.906;4.438;2024-03-23T14:01:20;15.83;;;15.13;;
19905;SDS011;10115;50.906;4.438;2024-03-23T14:03:46;15.53;;;14.83;;
19905;SDS011;10115;50.906;4.438;2024-03-23T14:06:12;16.17;;;15.33;;
19905;SDS011;10115;50.906;4.438;2024-03-23T14:08:37;18.73;;;16.77;;
19905;SDS011;10115;50.906;4.438;2024-03-23T14:11:08;17.73;;;15.83;;
19905;SDS011;10115;50.906;4.438;2024-03-23T14:13:34;16.17;;;15.07;;
19905;SDS011;10115;50.906;4.438;2024-03-23T14:16:00;15.77;;;15.07;;
19905;SDS011;10115;50.906;4.438;2024-03-23T14:18:27;17.53;;;16.07;;
19905;SDS011;10115;50.906;4.438;2024-03-23T14:20:56;16.20;;;15.40;;
19905;SDS011;10115;50.906;4.438;2024-03-23T14:23:25;16.57;;;15.77;;
19905;SDS011;10115;50.906;4.438;2024-03-23T14:25:55;17.23;;;15.97;;
19905;SDS011;10115;50.906;4.438;2024-03-23T14:28:22;16.90;;;15.90;;
19905;SDS011;10115;50.906;4.438;2024-03-23T14:30:51;15.50;;;14.40;;
19905;SDS011;10115;50.906;4.438;2024-03-23T14:33:20;15.67;;;14.93;;
19905;SDS011;10115;50.906;4.438;2024-03-23T14:35:52;15.87;;;14.97;;
19905;SDS011;10115;50.906;4.438;2024-03-23T14:38:18;14.93;;;14.10;;
19905;SDS011;10115;50.906;4.438;2024-03-23T14:40:45;14.27;;;13.67;;
19905;SDS011;10115;50.906;4.438;2024-03-23T14:43:11;15.97;;;15.13;;
19905;SDS011;10115;50.906;4.438;2024-03-23T14:45:37;14.70;;;14.00;;
19905;SDS011;10115;50.906;4.438;2024-03-23T14:48:03;14.27;;;13.67;;
19905;SDS011;10115;50.906;4.438;2024-03-23T14:50:28;14.70;;;14.07;;
19905;SDS011;10115;50.906;4.438;2024-03-23T14:52:54;16.00;;;15.10;;
19905;SDS011;10115;50.906;4.438;2024-03-23T14:55:20;14.50;;;13.90;;
19905;SDS011;10115;50.906;4.438;2024-03-23T14:57:45;14.93;;;14.23;;
19905;SDS011;10115;50.906;4.438;2024-03-23T15:00:11;14.83;;;13.93;;
19905;SDS011;10115;50.906;4.438;2024-03-23T15:02:37;14.20;;;13.57;;
19905;SDS011;10115;50.906;4.438;2024-03-23T15:05:03;15.20;;;14.40;;
19905;SDS011;10115;50.906;4.438;2024-03-23T15:07:33;14.17;;;13.23;;
19905;SDS011;10115;50.906;4.438;2024-03-23T15:09:58;14.60;;;13.90;;
19905;SDS011;10115;50.906;4.438;2024-03-23T15:12:24;15.77;;;14.73;;
19905;SDS011;10115;50.906;4.438;2024-03-23T15:14:49;14.93;;;14.30;;
19905;SDS011;10115;50.906;4.438;2024-03-23T15:17:15;14.33;;;13.70;;
19905;SDS011;10115;50.906;4.438;2024-03-23T15:19:41;14.57;;;13.97;;
19905;SDS011;10115;50.906;4.438;2024-03-23T15:22:07;14.77;;;14.17;;
19905;SDS011;10115;50.906;4.438;2024-03-23T15:24:36;15.77;;;14.87;;
19905;SDS011;10115;50.906;4.438;2024-03-23T15:27:02;15.70;;;14.70;;